Time;durP1;ratioP1;P1;durP2;ratioP2;P2;SDS_P1;SDS_P2;PMS_P1;PMS_P2;Temp;Humidity;BMP_temperature;BMP_pressure;BME280_temperature;BME280_humidity;BME280_pressure;Samples;Min_cycle;Max_cycle;Signal;HPM_P1;HPM_P2
2023/05/11 00:01:33;;;;;;;13.32;10.80;;;12.40;99.90;;;;;;4996284;28;20036;-84
2023/05/11 00:03:59;;;;;;;12.43;10.48;;;12.40;99.90;;;;;;4998609;28;20095;-85
2023/05/11 00:06:25;;;;;;;14.35;10.73;;;12.50;99.90;;;;;;4998272;28;20072;-85
2023/05/11 00:08:51;;;;;;;12.95;10.40;;;12.40;99.90;;;;;;4996631;28;20041;-85
2023/05/11 00:11:17;;;;;;;12.80;9.90;;;12.40;99.90;;;;;;4982906;28;20449;-86
2023/05/11 00:13:44;;;;;;;13.57;9.88;;;12.40;99.90;;;;;;4959847;28;20524;-86
2023/05/11 00:16:10;;;;;;;12.63;10.07;;;12.40;99.90;;;;;;5004259;28;20076;-85
2023/05/11 00:18:35;;;;;;;14.73;11.25;;;12.40;99.90;;;;;;5026445;28;20125;-85
2023/05/11 00:21:01;;;;;;;13.35;10.65;;;12.40;99.90;;;;;;5003298;28;20093;-85
2023/05/11 00:23:27;;;;;;;14.05;10.30;;;12.40;99.90;;;;;;5007862;28;20092;-85
2023/05/11 00:25:53;;;;;;;14.65;10.85;;;12.40;99.90;;;;;;5003402;28;20041;-85
2023/05/11 00:28:18;;;;;;;13.50;10.32;;;12.40;99.90;;;;;;5011949;28;20030;-85
2023/05/11 00:30:44;;;;;;;13.88;9.88;;;12.40;99.90;;;;;;5016026;28;20037;-85
2023/05/11 00:33:10;;;;;;;12.30;9.75;;;12.40;99.90;;;;;;5005680;28;20080;-85
2023/05/11 00:35:36;;;;;;;13.15;10.38;;;12.40;99.90;;;;;;4996599;28;20073;-85
2023/05/11 00:38:02;;;;;;;14.10;10.55;;;12.40;99.90;;;;;;4986691;28;20131;-85
2023/05/11 00:40:30;;;;;;;14.48;10.75;;;12.40;99.90;;;;;;5021209;28;20037;-85
2023/05/11 00:42:56;;;;;;;13.30;10.32;;;12.40;99.90;;;;;;5033517;28;20400;-84
2023/05/11 00:45:22;;;;;;;14.15;10.70;;;12.40;99.90;;;;;;5038991;28;20032;-85
2023/05/11 00:47:48;;;;;;;13.70;10.23;;;12.40;99.90;;;;;;5006159;28;20041;-84
2023/05/11 00:50:14;;;;;;;12.80;10.60;;;12.40;99.90;;;;;;4997596;28;20038;-85
2023/05/11 00:52:41;;;;;;;18.55;11.82;;;12.40;99.90;;;;;;4989651;28;20049;-85
2023/05/11 00:55:07;;;;;;;14.30;11.13;;;12.40;99.90;;;;;;5001491;28;20047;-85
2023/05/11 00:57:35;;;;;;;13.50;10.68;;;12.40;99.90;;;;;;5021144;28;20061;-85
2023/05/11 01:00:05;;;;;;;14.48;11.45;;;12.40;99.90;;;;;;5005896;28;20396;-86
2023/05/11 01:02:32;;;;;;;14.95;10.68;;;12.40;99.90;;;;;;4985811;28;20080;-84
2023/05/11 01:04:58;;;;;;;13.95;10.63;;;12.40;99.90;;;;;;5001862;28;20041;-85
2023/05/11 01:07:28;;;;;;;16.05;11.85;;;12.30;99.90;;;;;;4985784;28;20037;-85
2023/05/11 01:10:09;;;;;;;14.30;11.40;;;12.40;99.90;;;;;;5018273;28;20053;-85
2023/05/11 01:13:01;;;;;;;22.17;13.02;;;13.00;99.90;;;;;;5020146;28;20524;-84
2023/05/11 01:15:45;;;;;;;15.65;11.88;;;12.40;99.90;;;;;;5020230;28;20041;-85
2023/05/11 01:18:45;;;;;;;15.90;12.15;;;12.40;99.90;;;;;;5021334;28;20055;-85
2023/05/11 01:21:14;;;;;;;16.55;11.88;;;12.30;99.90;;;;;;5018639;28;20068;-85
2023/05/11 01:24:10;;;;;;;16.10;12.18;;;12.30;99.90;;;;;;5021914;28;20037;-85
2023/05/11 01:27:10;;;;;;;18.10;11.73;;;12.30;99.90;;;;;;5017317;28;20051;-85
2023/05/11 01:29:57;;;;;;;15.77;12.25;;;12.30;99.90;;;;;;5022195;28;20204;-85
2023/05/11 01:32:26;;;;;;;17.38;12.45;;;12.30;99.90;;;;;;5021273;28;20040;-86
2023/05/11 01:35:03;;;;;;;16.52;12.70;;;12.30;99.90;;;;;;5024876;28;20047;-85
2023/05/11 01:37:31;;;;;;;16.95;12.57;;;12.30;99.90;;;;;;5018784;28;20436;-86
2023/05/11 01:40:03;;;;;;;20.95;12.77;;;12.20;99.90;;;;;;5021950;28;20120;-84
2023/05/11 01:42:39;;;;;;;14.82;11.52;;;12.20;99.90;;;;;;5036115;28;20045;-85
2023/05/11 01:45:09;;;;;;;17.48;12.45;;;12.20;99.90;;;;;;5018730;28;20034;-84
2023/05/11 01:47:39;;;;;;;16.55;12.60;;;12.20;99.90;;;;;;5031579;28;20045;-85
2023/05/11 01:50:06;;;;;;;17.17;12.25;;;12.20;99.90;;;;;;5015067;28;20049;-86
2023/05/11 01:52:34;;;;;;;18.10;12.45;;;12.20;99.90;;;;;;5028353;28;20041;-84
2023/05/11 01:55:04;;;;;;;15.02;12.27;;;12.20;99.90;;;;;;5011167;28;20123;-85
2023/05/11 01:57:31;;;;;;;18.35;12.93;;;12.20;99.90;;;;;;5009192;28;20037;-85
2023/05/11 01:59:58;;;;;;;16.75;12.75;;;12.20;99.90;;;;;;4994167;28;20485;-84
2023/05/11 02:02:25;;;;;;;14.93;11.98;;;12.20;99.90;;;;;;5010592;28;20055;-85
2023/05/11 02:04:53;;;;;;;16.73;11.98;;;12.20;99.90;;;;;;4996479;28;20116;-84
2023/05/11 02:07:20;;;;;;;16.17;12.13;;;12.20;99.90;;;;;;5015738;28;20033;-84
2023/05/11 02:09:47;;;;;;;16.85;12.10;;;12.20;99.90;;;;;;5017097;28;20040;-84
2023/05/11 02:12:14;;;;;;;15.65;12.05;;;12.10;99.90;;;;;;5033572;28;20057;-86
2023/05/11 02:14:41;;;;;;;14.50;11.45;;;12.20;99.90;;;;;;5019287;28;20377;-85
2023/05/11 02:17:08;;;;;;;15.65;11.15;;;12.10;99.90;;;;;;5036918;28;20080;-85
2023/05/11 02:19:36;;;;;;;16.90;11.23;;;12.10;99.90;;;;;;5003073;28;20041;-85
2023/05/11 02:22:03;;;;;;;15.52;12.05;;;12.10;99.90;;;;;;5000919;28;20033;-85
2023/05/11 02:24:30;;;;;;;16.40;12.32;;;12.10;99.90;;;;;;5002575;28;20029;-84
2023/05/11 02:26:57;;;;;;;16.65;12.38;;;12.10;99.90;;;;;;5020869;28;20614;-84
2023/05/11 02:29:24;;;;;;;19.38;13.80;;;12.10;99.90;;;;;;5020535;28;20045;-85
2023/05/11 02:31:59;;;;;;;17.45;13.05;;;12.10;99.90;;;;;;5015608;28;20115;-84
2023/05/11 02:34:40;;;;;;;17.90;12.87;;;12.10;99.90;;;;;;5020188;28;20067;-84
2023/05/11 02:37:10;;;;;;;19.17;14.13;;;12.10;99.90;;;;;;5036548;28;20283;-84
2023/05/11 02:39:37;;;;;;;20.00;14.10;;;12.10;99.90;;;;;;5035884;28;20573;-84
2023/05/11 02:42:14;;;;;;;23.13;14.50;;;12.00;99.90;;;;;;5004274;28;20064;-85
2023/05/11 02:44:49;;;;;;;18.67;14.00;;;12.00;99.90;;;;;;5037483;28;20040;-85
2023/05/11 02:47:18;;;;;;;17.88;13.68;;;12.00;99.90;;;;;;5021324;28;20068;-84
2023/05/11 02:49:52;;;;;;;22.17;13.95;;;12.00;99.90;;;;;;5010949;28;20041;-85
2023/05/11 02:52:21;;;;;;;19.90;13.68;;;12.00;99.90;;;;;;5023015;28;20048;-84
2023/05/11 02:54:50;;;;;;;20.63;13.75;;;12.00;99.90;;;;;;5020454;28;20041;-85
2023/05/11 02:57:17;;;;;;;18.10;13.27;;;12.00;99.90;;;;;;5019548;28;20040;-85
2023/05/11 02:59:45;;;;;;;20.17;13.98;;;12.00;99.90;;;;;;4983500;28;20071;-84
2023/05/11 03:02:11;;;;;;;22.23;14.38;;;12.00;99.90;;;;;;5016912;28;20433;-85
2023/05/11 03:04:38;;;;;;;19.55;14.05;;;12.00;99.90;;;;;;5019056;28;20476;-84
2023/05/11 03:07:05;;;;;;;21.33;14.68;;;12.00;99.90;;;;;;4998755;28;20029;-85
2023/05/11 03:09:31;;;;;;;20.98;15.10;;;12.00;99.90;;;;;;4984136;28;20072;-84
2023/05/11 03:11:58;;;;;;;22.65;15.70;;;12.00;99.90;;;;;;5009249;28;20041;-85
2023/05/11 03:14:24;;;;;;;22.70;15.18;;;12.00;99.90;;;;;;5017718;28;20488;-84
2023/05/11 03:16:51;;;;;;;26.25;15.70;;;12.00;99.90;;;;;;5001745;28;20060;-85
2023/05/11 03:19:17;;;;;;;21.42;15.45;;;11.90;99.90;;;;;;5019318;28;20045;-85
2023/05/11 03:21:43;;;;;;;20.92;14.85;;;12.00;99.90;;;;;;5006074;28;20160;-85
2023/05/11 03:24:10;;;;;;;24.48;15.68;;;12.00;99.90;;;;;;5008369;28;20496;-86
2023/05/11 03:26:37;;;;;;;20.77;15.10;;;12.00;99.90;;;;;;5018707;28;20481;-84
2023/05/11 03:29:03;;;;;;;22.30;16.48;;;12.00;99.90;;;;;;5003199;28;20044;-84
2023/05/11 03:31:29;;;;;;;22.23;16.42;;;12.00;99.90;;;;;;4987879;28;20084;-85
2023/05/11 03:33:56;;;;;;;21.05;15.98;;;12.00;99.90;;;;;;4988402;28;20130;-84
2023/05/11 03:36:23;;;;;;;23.60;16.48;;;12.00;99.90;;;;;;5001294;28;20141;-84
2023/05/11 03:38:52;;;;;;;23.02;15.80;;;12.00;99.90;;;;;;5003088;28;20068;-84
2023/05/11 03:41:20;;;;;;;25.50;17.10;;;12.00;99.90;;;;;;5006417;28;20473;-85
2023/05/11 03:43:48;;;;;;;22.30;16.02;;;12.00;99.90;;;;;;4999061;28;20045;-84
2023/05/11 03:46:19;;;;;;;27.33;17.20;;;12.00;99.90;;;;;;5008247;28;20044;-85
2023/05/11 03:48:45;;;;;;;24.42;17.00;;;12.00;99.90;;;;;;5018939;28;20235;-85
2023/05/11 03:51:11;;;;;;;23.42;16.63;;;12.00;99.90;;;;;;5010271;28;20030;-85
2023/05/11 03:53:37;;;;;;;25.67;17.25;;;11.90;99.90;;;;;;4983534;28;20038;-84
2023/05/11 03:56:06;;;;;;;25.63;17.15;;;12.00;99.90;;;;;;4983369;28;20448;-83
2023/05/11 03:58:32;;;;;;;26.50;17.40;;;12.00;99.90;;;;;;4982065;28;20420;-84
2023/05/11 04:00:58;;;;;;;23.33;15.45;;;11.90;99.90;;;;;;4995697;28;20044;-84
2023/05/11 04:03:24;;;;;;;22.65;16.42;;;11.90;99.90;;;;;;4995795;28;20416;-84
2023/05/11 04:05:49;;;;;;;25.52;16.20;;;12.00;99.90;;;;;;5002819;28;20120;-84
2023/05/11 04:08:15;;;;;;;23.73;16.55;;;12.00;99.90;;;;;;5019289;28;20433;-85
2023/05/11 04:10:41;;;;;;;26.13;15.95;;;11.90;99.90;;;;;;5003283;28;20041;-85
2023/05/11 04:13:06;;;;;;;26.88;16.23;;;11.90;99.90;;;;;;4987421;28;20046;-84
2023/05/11 04:15:34;;;;;;;26.67;16.38;;;11.90;99.90;;;;;;5002630;28;20076;-85
2023/05/11 04:17:59;;;;;;;25.15;16.13;;;11.90;99.90;;;;;;5036868;28;20100;-85
2023/05/11 04:20:25;;;;;;;25.27;17.10;;;11.90;99.90;;;;;;5000226;28;20068;-85
2023/05/11 04:22:51;;;;;;;25.25;17.13;;;11.90;99.90;;;;;;5010132;28;20550;-85
2023/05/11 04:25:17;;;;;;;26.23;16.45;;;11.90;99.90;;;;;;4986295;28;20143;-85
2023/05/11 04:27:42;;;;;;;26.15;17.75;;;11.90;99.90;;;;;;5012129;28;20064;-85
2023/05/11 04:30:08;;;;;;;24.55;17.33;;;11.90;99.90;;;;;;5001176;28;20477;-85
2023/05/11 04:32:34;;;;;;;26.92;17.02;;;11.90;99.90;;;;;;4986485;28;20073;-85
2023/05/11 04:35:00;;;;;;;28.30;18.23;;;11.90;99.90;;;;;;5024923;28;20076;-85
2023/05/11 04:37:25;;;;;;;27.75;17.67;;;11.90;99.90;;;;;;4994738;28;20044;-84
2023/05/11 04:39:51;;;;;;;27.50;17.08;;;11.90;99.90;;;;;;5038270;28;20038;-84
2023/05/11 04:42:17;;;;;;;28.88;17.05;;;11.90;99.90;;;;;;5002001;28;20076;-85
2023/05/11 04:44:42;;;;;;;30.60;17.75;;;11.80;99.90;;;;;;4986401;28;20135;-84
2023/05/11 04:47:08;;;;;;;29.77;18.05;;;11.90;99.90;;;;;;4969997;28;20033;-85
2023/05/11 04:49:34;;;;;;;32.58;18.50;;;11.90;99.90;;;;;;4970249;28;20064;-85
2023/05/11 04:52:00;;;;;;;28.85;17.55;;;11.90;99.90;;;;;;4998171;28;20477;-85
2023/05/11 04:54:26;;;;;;;30.17;18.38;;;11.90;99.90;;;;;;4973806;28;20033;-85
2023/05/11 04:56:51;;;;;;;27.85;17.42;;;11.90;99.90;;;;;;4985401;28;20056;-85
2023/05/11 04:59:17;;;;;;;32.80;18.65;;;12.30;99.90;;;;;;5004928;28;20039;-85
2023/05/11 05:01:43;;;;;;;31.10;17.58;;;11.90;99.90;;;;;;5002160;28;20116;-85
2023/05/11 05:04:08;;;;;;;29.40;18.45;;;12.00;99.90;;;;;;4999897;28;20440;-85
2023/05/11 05:06:34;;;;;;;30.05;18.05;;;11.90;99.90;;;;;;5005058;28;20029;-84
2023/05/11 05:09:00;;;;;;;30.23;17.40;;;11.90;99.90;;;;;;4987233;28;20041;-85
2023/05/11 05:11:26;;;;;;;28.23;18.35;;;12.00;99.90;;;;;;5009701;28;20032;-85
2023/05/11 05:13:52;;;;;;;30.05;18.40;;;11.90;99.90;;;;;;4979122;28;20492;-84
2023/05/11 05:16:17;;;;;;;33.58;18.73;;;12.00;99.90;;;;;;5024533;28;20040;-85
2023/05/11 05:18:43;;;;;;;34.08;20.25;;;12.00;99.90;;;;;;5036428;28;20061;-84
2023/05/11 05:21:09;;;;;;;32.90;18.42;;;12.00;99.90;;;;;;4986739;28;20124;-84
2023/05/11 05:23:35;;;;;;;29.63;17.73;;;12.00;99.90;;;;;;5028743;28;20075;-85
2023/05/11 05:26:00;;;;;;;30.08;16.70;;;12.00;99.90;;;;;;5006024;28;20120;-84
2023/05/11 05:28:26;;;;;;;24.35;15.90;;;12.00;99.90;;;;;;4997554;28;20423;-85
2023/05/11 05:30:52;;;;;;;31.15;16.55;;;12.00;99.90;;;;;;5003442;28;20033;-85
2023/05/11 05:33:18;;;;;;;25.60;14.65;;;12.00;99.90;;;;;;5010946;28;20037;-85
2023/05/11 05:35:45;;;;;;;28.20;16.08;;;12.00;99.90;;;;;;5030788;28;20179;-85
2023/05/11 05:38:11;;;;;;;23.20;15.30;;;12.00;99.90;;;;;;4998220;28;20042;-85
2023/05/11 05:40:38;;;;;;;32.92;16.42;;;12.00;99.90;;;;;;5001362;28;20044;-86
2023/05/11 05:43:04;;;;;;;32.25;17.17;;;12.00;99.90;;;;;;4972339;28;20488;-86
2023/05/11 05:45:30;;;;;;;29.42;16.13;;;12.00;99.90;;;;;;4977779;28;20032;-86
2023/05/11 05:47:59;;;;;;;37.95;15.35;;;12.00;99.90;;;;;;5003278;28;20362;-86
2023/05/11 05:50:25;;;;;;;29.55;14.55;;;12.00;99.90;;;;;;4992736;28;20033;-86
2023/05/11 05:52:51;;;;;;;22.35;14.13;;;11.90;99.90;;;;;;5003692;28;20099;-86
2023/05/11 05:55:16;;;;;;;15.48;10.93;;;12.10;99.90;;;;;;5003574;28;20045;-86
2023/05/11 05:57:42;;;;;;;25.98;14.57;;;11.90;99.90;;;;;;5006144;28;20037;-85
2023/05/11 06:00:08;;;;;;;30.92;14.38;;;11.90;99.90;;;;;;4989306;28;20439;-86
2023/05/11 06:02:34;;;;;;;25.38;13.85;;;12.00;99.90;;;;;;4974805;28;20038;-86
2023/05/11 06:05:00;;;;;;;23.75;12.57;;;12.00;99.90;;;;;;4972250;28;20045;-86
2023/05/11 06:07:26;;;;;;;19.23;10.90;;;12.00;99.90;;;;;;5003434;28;20064;-86
2023/05/11 06:09:51;;;;;;;19.80;10.50;;;12.00;99.90;;;;;;5001458;28;20106;-86
2023/05/11 06:12:17;;;;;;;16.85;9.80;;;12.00;99.90;;;;;;5002954;28;20040;-86
2023/05/11 06:14:43;;;;;;;17.02;9.80;;;12.00;99.90;;;;;;4986414;28;20450;-85
2023/05/11 06:17:09;;;;;;;15.38;7.90;;;12.00;99.90;;;;;;4983882;28;20057;-86
2023/05/11 06:19:34;;;;;;;18.85;8.85;;;12.00;99.90;;;;;;5016530;28;20073;-86
2023/05/11 06:22:00;;;;;;;14.25;9.50;;;12.00;99.90;;;;;;5009867;28;20037;-86
2023/05/11 06:24:26;;;;;;;22.67;10.48;;;12.00;99.90;;;;;;5021476;28;20049;-83
2023/05/11 06:26:51;;;;;;;14.90;9.20;;;12.60;99.90;;;;;;4994132;28;20148;-85
2023/05/11 06:29:18;;;;;;;17.20;10.20;;;12.00;99.90;;;;;;5002841;28;20315;-85
2023/05/11 06:31:44;;;;;;;13.07;8.00;;;12.00;99.90;;;;;;4975017;28;20044;-85
2023/05/11 06:34:10;;;;;;;11.85;7.68;;;12.00;99.90;;;;;;4989767;28;20439;-84
2023/05/11 06:36:35;;;;;;;14.90;9.32;;;12.00;99.90;;;;;;4999377;28;20627;-85
2023/05/11 06:39:01;;;;;;;16.45;10.45;;;12.00;99.90;;;;;;4998808;28;20090;-84
2023/05/11 06:41:27;;;;;;;20.10;10.18;;;11.90;99.90;;;;;;5001496;28;20396;-85
2023/05/11 06:43:53;;;;;;;21.27;11.25;;;12.00;99.90;;;;;;4999637;28;20107;-85
2023/05/11 06:46:18;;;;;;;17.63;11.13;;;11.90;99.90;;;;;;4983932;28;20044;-85
2023/05/11 06:48:44;;;;;;;19.35;11.13;;;11.90;99.90;;;;;;4983685;28;20627;-85
2023/05/11 06:51:10;;;;;;;21.20;11.05;;;11.90;99.90;;;;;;5016831;28;20123;-84
2023/05/11 06:53:37;;;;;;;14.20;8.68;;;11.90;99.90;;;;;;5007496;28;20124;-84
2023/05/11 06:56:03;;;;;;;16.98;8.85;;;11.90;99.90;;;;;;4992527;28;20392;-87
2023/05/11 06:58:29;;;;;;;13.75;8.23;;;11.90;99.90;;;;;;5003243;28;20136;-85
2023/05/11 07:00:55;;;;;;;18.52;10.02;;;12.00;99.90;;;;;;5017867;28;20123;-85
2023/05/11 07:03:21;;;;;;;18.23;9.82;;;11.90;99.90;;;;;;5001167;28;20072;-84
2023/05/11 07:05:48;;;;;;;17.95;9.82;;;11.90;99.90;;;;;;4987273;28;20552;-86
2023/05/11 07:08:13;;;;;;;16.73;10.15;;;11.90;99.90;;;;;;5003497;28;20045;-86
2023/05/11 07:10:40;;;;;;;15.07;9.32;;;11.90;99.90;;;;;;4991031;28;20120;-86
2023/05/11 07:13:06;;;;;;;15.35;9.65;;;11.90;99.90;;;;;;4984395;28;20404;-87
2023/05/11 07:15:32;;;;;;;13.60;8.55;;;11.90;99.90;;;;;;4985088;28;20045;-86
2023/05/11 07:18:00;;;;;;;11.57;7.78;;;12.20;99.90;;;;;;4997207;28;20511;-86
2023/05/11 07:20:26;;;;;;;11.77;7.00;;;12.00;99.90;;;;;;5011875;28;20037;-84
2023/05/11 07:22:55;;;;;;;13.18;6.82;;;12.00;99.90;;;;;;4994373;28;20481;-84
2023/05/11 07:25:21;;;;;;;8.80;6.05;;;12.00;99.90;;;;;;5002991;28;20136;-85
2023/05/11 07:27:47;;;;;;;11.38;5.53;;;12.00;99.90;;;;;;5034678;28;20115;-85
2023/05/11 07:30:12;;;;;;;9.55;5.38;;;12.00;99.90;;;;;;5002419;28;20037;-85
2023/05/11 07:32:38;;;;;;;9.30;5.18;;;12.10;99.90;;;;;;5018371;28;20527;-84
2023/05/11 07:35:04;;;;;;;8.70;4.43;;;12.10;99.90;;;;;;5017592;28;20040;-86
2023/05/11 07:37:30;;;;;;;7.70;4.07;;;12.20;99.90;;;;;;4987220;28;20080;-90
2023/05/11 07:39:55;;;;;;;5.65;3.92;;;12.30;99.90;;;;;;5019106;28;20390;-89
2023/05/11 07:42:21;;;;;;;6.60;3.80;;;12.40;99.90;;;;;;4983037;28;20404;-88
2023/05/11 07:44:47;;;;;;;6.35;3.72;;;12.40;99.90;;;;;;4979787;28;20044;-88
2023/05/11 07:47:13;;;;;;;5.75;3.63;;;12.50;99.90;;;;;;4982988;28;20068;-90
2023/05/11 07:49:40;;;;;;;6.18;3.67;;;12.60;99.90;;;;;;4995687;28;20036;-91
2023/05/11 07:52:06;;;;;;;6.68;3.78;;;12.70;99.90;;;;;;4998110;28;20041;-86
2023/05/11 07:54:32;;;;;;;9.00;4.15;;;12.70;99.90;;;;;;4992880;28;20041;-88
2023/05/11 07:56:57;;;;;;;7.22;4.20;;;12.80;99.90;;;;;;5014264;28;20029;-88
2023/05/11 07:59:23;;;;;;;7.60;4.60;;;12.90;99.90;;;;;;4996366;28;20065;-89
2023/05/11 08:01:49;;;;;;;9.23;5.50;;;13.00;99.90;;;;;;4999803;28;20048;-88
2023/05/11 08:04:14;;;;;;;7.75;4.72;;;13.00;99.90;;;;;;5018469;28;20044;-89
2023/05/11 08:06:40;;;;;;;6.97;4.32;;;13.10;99.90;;;;;;4981496;28;20074;-89
2023/05/11 08:09:06;;;;;;;6.75;4.03;;;13.20;99.90;;;;;;4998549;28;20030;-89
2023/05/11 08:11:32;;;;;;;5.80;3.13;;;13.30;99.90;;;;;;4985101;28;20554;-86
2023/05/11 08:13:58;;;;;;;6.63;2.55;;;13.40;99.90;;;;;;4994233;28;20088;-85
2023/05/11 08:16:24;;;;;;;4.72;2.47;;;13.40;99.90;;;;;;4981957;28;20101;-86
2023/05/11 08:18:49;;;;;;;3.65;2.50;;;13.50;99.90;;;;;;5015430;28;20107;-87
2023/05/11 08:21:16;;;;;;;3.25;2.28;;;13.50;99.90;;;;;;4985002;28;20044;-87
2023/05/11 08:23:42;;;;;;;3.67;2.38;;;13.60;99.90;;;;;;4982752;28;20045;-85
2023/05/11 08:26:07;;;;;;;2.38;1.58;;;13.60;99.90;;;;;;4984723;28;20036;-86
2023/05/11 08:28:33;;;;;;;2.53;1.60;;;13.70;99.90;;;;;;4993713;28;20041;-86
2023/05/11 08:30:59;;;;;;;2.42;1.50;;;13.80;99.90;;;;;;5018484;28;20033;-87
2023/05/11 08:33:26;;;;;;;2.90;1.63;;;13.80;99.90;;;;;;4993993;28;20080;-86
2023/05/11 08:35:52;;;;;;;2.90;1.60;;;13.80;99.90;;;;;;4995805;28;20092;-87
2023/05/11 08:38:18;;;;;;;2.83;1.65;;;13.80;99.90;;;;;;5001714;28;20049;-89
2023/05/11 08:40:47;;;;;;;3.97;1.70;;;13.80;99.90;;;;;;4998087;28;20049;-90
2023/05/11 08:43:13;;;;;;;2.78;1.63;;;13.90;99.90;;;;;;5001376;28;20047;-89
2023/05/11 08:45:43;;;;;;;2.53;1.60;;;14.00;99.90;;;;;;5026289;28;20427;-89
2023/05/11 08:48:10;;;;;;;2.50;1.60;;;14.10;99.90;;;;;;5005948;28;20033;-87
2023/05/11 08:50:36;;;;;;;2.85;1.77;;;14.20;99.90;;;;;;5037388;28;20072;-87
2023/05/11 08:53:01;;;;;;;3.53;2.00;;;14.30;99.90;;;;;;5019046;28;20067;-86
2023/05/11 08:55:28;;;;;;;3.83;1.80;;;14.40;99.90;;;;;;5031415;28;20087;-87
2023/05/11 08:57:57;;;;;;;2.88;1.90;;;14.40;99.90;;;;;;4988876;28;20041;-88
2023/05/11 09:00:24;;;;;;;7.32;2.67;;;14.60;99.90;;;;;;5021637;28;20045;-87
2023/05/11 09:02:51;;;;;;;3.35;2.28;;;14.60;99.90;;;;;;5037563;28;20041;-85
2023/05/11 09:05:17;;;;;;;4.55;2.60;;;14.70;99.90;;;;;;5003074;28;20036;-86
2023/05/11 09:07:46;;;;;;;4.45;2.70;;;14.90;99.90;;;;;;5010771;28;20116;-86
2023/05/11 09:10:12;;;;;;;7.22;2.67;;;15.20;99.90;;;;;;5019156;28;20045;-87
2023/05/11 09:12:38;;;;;;;7.18;3.00;;;15.30;99.90;;;;;;5004979;28;20336;-87
2023/05/11 09:15:04;;;;;;;5.53;2.50;;;15.50;99.90;;;;;;4986019;28;20041;-87
2023/05/11 09:17:30;;;;;;;3.17;2.25;;;15.70;99.90;;;;;;4987051;28;20057;-86
2023/05/11 09:20:00;;;;;;;4.10;2.40;;;15.70;99.90;;;;;;5006014;28;20067;-87
2023/05/11 09:22:26;;;;;;;3.83;2.25;;;15.80;99.90;;;;;;5014307;28;20376;-86
2023/05/11 09:24:52;;;;;;;3.42;2.50;;;15.90;99.90;;;;;;5020103;28;20040;-87
2023/05/11 09:27:17;;;;;;;3.67;2.50;;;16.00;99.90;;;;;;5014993;28;20039;-87
2023/05/11 09:29:43;;;;;;;3.28;2.20;;;16.10;99.90;;;;;;5014477;28;20404;-86
2023/05/11 09:32:09;;;;;;;2.97;1.90;;;16.20;99.90;;;;;;4972447;28;20037;-86
2023/05/11 09:34:35;;;;;;;2.42;1.90;;;16.30;99.90;;;;;;5016578;28;20079;-87
2023/05/11 09:37:00;;;;;;;4.07;2.25;;;16.40;99.90;;;;;;5027868;28;20119;-87
2023/05/11 09:39:30;;;;;;;3.83;2.10;;;16.30;99.90;;;;;;5015155;28;20202;-87
2023/05/11 09:42:16;;;;;;;2.75;1.67;;;16.30;99.90;;;;;;5017769;28;20049;-87
2023/05/11 09:44:46;;;;;;;2.65;1.88;;;16.30;99.90;;;;;;5011502;28;20044;-88
2023/05/11 09:47:21;;;;;;;2.90;2.13;;;16.20;99.90;;;;;;5031084;28;20036;-84
2023/05/11 09:49:47;;;;;;;2.85;1.70;;;16.20;99.90;;;;;;5031781;28;20071;-85
2023/05/11 09:52:19;;;;;;;5.00;2.40;;;16.30;99.90;;;;;;5030575;28;20393;-91
2023/05/11 09:54:50;;;;;;;3.95;2.55;;;16.30;99.90;;;;;;5029372;28;20062;-92
2023/05/11 09:57:22;;;;;;;3.53;2.83;;;16.40;99.90;;;;;;5002700;28;20048;-91
2023/05/11 09:59:47;;;;;;;3.50;2.53;;;16.50;99.90;;;;;;5016536;28;20044;-91
2023/05/11 10:02:20;;;;;;;3.60;2.95;;;16.50;99.90;;;;;;5002464;28;20033;-92
2023/05/11 10:04:46;;;;;;;4.20;2.58;;;16.50;99.90;;;;;;5024850;28;20059;-92
2023/05/11 10:07:23;;;;;;;3.35;2.67;;;16.50;99.90;;;;;;5018304;28;20032;-88
2023/05/11 10:09:54;;;;;;;3.80;2.55;;;16.50;99.90;;;;;;5022337;28;20045;-91
2023/05/11 10:12:24;;;;;;;4.95;2.75;;;16.60;99.90;;;;;;5005457;28;20032;-90
2023/05/11 10:14:55;;;;;;;3.47;2.60;;;16.70;99.90;;;;;;5020528;28;20072;-91
2023/05/11 10:17:21;;;;;;;4.40;2.90;;;16.80;99.90;;;;;;5006072;28;20552;-91
2023/05/11 10:19:47;;;;;;;3.30;2.65;;;16.90;99.90;;;;;;5003479;28;20124;-85
2023/05/11 10:22:15;;;;;;;4.53;2.88;;;17.00;99.90;;;;;;5015240;28;20129;-85
2023/05/11 10:24:41;;;;;;;3.40;2.42;;;17.10;99.90;;;;;;5002333;28;20036;-84
2023/05/11 10:27:07;;;;;;;4.28;2.28;;;17.20;99.90;;;;;;5000537;28;20041;-85
2023/05/11 10:29:36;;;;;;;3.25;2.35;;;17.20;99.90;;;;;;5004662;28;20041;-84
2023/05/11 10:32:03;;;;;;;2.30;2.00;;;17.20;99.90;;;;;;5016741;28;20530;-86
2023/05/11 10:34:30;;;;;;;2.88;2.40;;;17.20;99.90;;;;;;5006971;28;20071;-84
2023/05/11 10:36:59;;;;;;;2.80;2.15;;;17.20;99.90;;;;;;4994666;28;20046;-84
2023/05/11 10:39:25;;;;;;;2.80;1.70;;;17.30;99.90;;;;;;5013353;28;20041;-84
2023/05/11 10:42:23;;;;;;;2.00;1.50;;;17.30;99.90;;;;;;4976778;28;20037;-85
2023/05/11 10:45:07;;;;;;;4.93;2.05;;;17.40;99.90;;;;;;5014370;28;20500;-84
2023/05/11 10:48:07;;;;;;;5.75;1.80;;;17.50;99.90;;;;;;5010469;28;20116;-84
2023/05/11 10:50:58;;;;;;;2.83;1.83;;;17.50;99.90;;;;;;5017712;28;20396;-85
2023/05/11 10:53:36;;;;;;;2.00;1.60;;;17.50;99.90;;;;;;5017749;28;20120;-85
2023/05/11 10:56:13;;;;;;;2.58;1.55;;;17.60;99.90;;;;;;5013583;28;20374;-85
2023/05/11 10:58:53;;;;;;;1.83;1.45;;;17.70;99.90;;;;;;5017198;28;20119;-85
2023/05/11 11:01:21;;;;;;;1.85;1.40;;;17.70;99.90;;;;;;5017258;28;20119;-86
2023/05/11 11:04:01;;;;;;;1.88;1.30;;;17.70;99.90;;;;;;5016412;28;20128;-85
2023/05/11 11:06:28;;;;;;;2.10;1.40;;;17.70;99.90;;;;;;5016205;28;20041;-85
2023/05/11 11:08:59;;;;;;;3.65;1.80;;;17.60;99.90;;;;;;4997673;28;20382;-85
2023/05/11 11:11:36;;;;;;;2.00;1.63;;;17.60;99.90;;;;;;5014015;28;20040;-84
2023/05/11 11:14:04;;;;;;;1.88;1.60;;;17.60;99.90;;;;;;5031268;28;20048;-85
2023/05/11 11:16:33;;;;;;;3.65;1.70;;;17.60;99.90;;;;;;5007914;28;20107;-84
2023/05/11 11:19:27;;;;;;;3.47;1.38;;;17.70;99.90;;;;;;5035011;28;20135;-84
2023/05/11 11:21:54;;;;;;;1.95;1.40;;;17.70;99.90;;;;;;5019329;28;20044;-85
2023/05/11 11:24:38;;;;;;;2.00;1.55;;;17.70;99.90;;;;;;5018492;28;20120;-85
2023/05/11 11:27:08;;;;;;;2.58;1.65;;;17.70;99.90;;;;;;5018635;28;20037;-85
2023/05/11 11:29:39;;;;;;;2.22;1.70;;;17.80;99.90;;;;;;4995035;28;20036;-85
2023/05/11 11:32:23;;;;;;;3.50;1.70;;;17.80;99.90;;;;;;5019299;28;20059;-85
2023/05/11 11:34:50;;;;;;;2.92;1.70;;;17.80;99.90;;;;;;5027576;28;20041;-85
2023/05/11 11:37:17;;;;;;;3.05;1.30;;;17.80;99.90;;;;;;5018531;28;20041;-84
2023/05/11 11:39:42;;;;;;;3.83;1.00;;;17.80;99.90;;;;;;5031940;28;20037;-85
2023/05/11 11:42:09;;;;;;;1.60;1.10;;;17.80;99.90;;;;;;5016167;28;20079;-86
2023/05/11 11:44:36;;;;;;;1.95;1.25;;;17.90;99.90;;;;;;5010046;28;20048;-85
2023/05/11 11:47:19;;;;;;;1.27;0.90;;;18.00;99.90;;;;;;5033446;28;20055;-85
2023/05/11 11:49:52;;;;;;;3.88;1.00;;;18.00;99.90;;;;;;5013527;28;20071;-85
2023/05/11 11:52:27;;;;;;;0.80;0.77;;;18.00;99.90;;;;;;5015215;28;20037;-85
2023/05/11 11:54:54;;;;;;;0.88;0.65;;;18.00;99.90;;;;;;5018104;28;20041;-85
2023/05/11 11:57:32;;;;;;;1.08;0.82;;;17.90;99.90;;;;;;5032158;28;20500;-86
2023/05/11 12:00:11;;;;;;;1.10;0.80;;;17.90;99.90;;;;;;5049912;28;20067;-85
2023/05/11 12:02:44;;;;;;;1.88;1.20;;;17.80;99.90;;;;;;5009594;28;20064;-86
2023/05/11 12:05:18;;;;;;;2.25;1.20;;;17.80;99.90;;;;;;5011207;28;20090;-85
2023/05/11 12:07:51;;;;;;;1.88;1.10;;;17.70;99.90;;;;;;5009887;28;20412;-85
2023/05/11 12:10:19;;;;;;;1.88;1.50;;;17.60;99.90;;;;;;5006229;28;20033;-84
2023/05/11 12:12:50;;;;;;;1.35;1.02;;;17.60;99.90;;;;;;5031697;28;20443;-86
2023/05/11 12:15:26;;;;;;;1.55;1.30;;;17.50;99.90;;;;;;4986337;28;20041;-85
2023/05/11 12:17:53;;;;;;;3.47;1.50;;;17.50;99.90;;;;;;5010845;28;20060;-86
2023/05/11 12:20:20;;;;;;;3.33;1.75;;;17.50;99.90;;;;;;5006778;28;20049;-85
2023/05/11 12:22:48;;;;;;;2.00;1.63;;;17.50;99.90;;;;;;5005287;28;20048;-85
2023/05/11 12:25:18;;;;;;;2.00;1.33;;;17.40;99.90;;;;;;5013016;28;20048;-86
2023/05/11 12:27:47;;;;;;;2.30;1.60;;;17.40;99.90;;;;;;5001200;28;20496;-84
2023/05/11 12:30:31;;;;;;;1.88;1.67;;;17.40;99.90;;;;;;5033011;28;20295;-86
2023/05/11 12:32:58;;;;;;;1.75;1.60;;;17.50;99.90;;;;;;5011376;28;20118;-85
2023/05/11 12:35:25;;;;;;;2.15;1.67;;;17.50;99.90;;;;;;5005992;28;20045;-85
2023/05/11 12:37:52;;;;;;;2.30;1.92;;;17.50;99.90;;;;;;5022245;28;20045;-85
2023/05/11 12:40:17;;;;;;;2.22;1.83;;;17.60;99.90;;;;;;5005275;28;20091;-85
2023/05/11 12:42:55;;;;;;;2.20;1.80;;;17.60;99.90;;;;;;5005333;28;20048;-84